Time;durP1;ratioP1;P1;durP2;ratioP2;P2;SDS_P1;SDS_P2;PMS_P1;PMS_P2;Temp;Humidity;BMP_temperature;BMP_pressure;BME280_temperature;BME280_humidity;BME280_pressure;Samples;Min_cycle;Max_cycle;Signal;HPM_P1;HPM_P2
2022/03/11 00:00:42;;;;;;;;;;;19.20;99.90;;;;;;5028002;28;19936;-58
2022/03/11 00:03:10;;;;;;;;;;;19.20;99.90;;;;;;5035681;28;20655;-59
2022/03/11 00:05:39;;;;;;;;;;;19.20;99.90;;;;;;5034129;28;19933;-58
2022/03/11 00:08:06;;;;;;;;;;;19.20;99.90;;;;;;5048427;28;19928;-59
2022/03/11 00:10:33;;;;;;;;;;;19.20;99.90;;;;;;5045335;28;19925;-60
2022/03/11 00:13:00;;;;;;;;;;;19.20;99.90;;;;;;5036186;28;19936;-61
2022/03/11 00:15:27;;;;;;;;;;;19.10;99.90;;;;;;5040190;28;19933;-59
2022/03/11 00:17:55;;;;;;;;;;;19.10;99.90;;;;;;5028626;28;19929;-59
2022/03/11 00:20:22;;;;;;;;;;;19.10;99.90;;;;;;5044214;28;20308;-60
2022/03/11 00:22:50;;;;;;;;;;;19.10;99.90;;;;;;5030929;28;20313;-59
2022/03/11 00:25:17;;;;;;;;;;;19.10;99.90;;;;;;5030548;28;19929;-60
2022/03/11 00:27:45;;;;;;;;;;;19.10;99.90;;;;;;5028071;28;19933;-60
2022/03/11 00:30:12;;;;;;;;;;;19.10;99.90;;;;;;5027910;28;19925;-62
2022/03/11 00:32:39;;;;;;;;;;;19.00;99.90;;;;;;5031736;28;19925;-64
2022/03/11 00:35:08;;;;;;;;;;;19.10;99.90;;;;;;5027834;28;19929;-57
2022/03/11 00:37:36;;;;;;;;;;;19.00;99.90;;;;;;5027111;28;19936;-59
2022/03/11 00:40:04;;;;;;;;;;;19.00;99.90;;;;;;5036747;28;19925;-61
2022/03/11 00:42:31;;;;;;;;;;;19.00;99.90;;;;;;5041495;28;19928;-61
2022/03/11 00:44:58;;;;;;;;;;;19.00;99.90;;;;;;5038386;28;20324;-60
2022/03/11 00:47:26;;;;;;;;;;;19.00;99.90;;;;;;5038905;28;19939;-61
2022/03/11 00:49:53;;;;;;;;;;;19.00;99.90;;;;;;5027487;28;20412;-60
2022/03/11 00:52:20;;;;;;;;;;;19.00;99.90;;;;;;5028970;28;20316;-60
2022/03/11 00:54:47;;;;;;;;;;;19.00;99.90;;;;;;5026940;28;20372;-61
2022/03/11 00:57:16;;;;;;;;;;;18.90;99.90;;;;;;5030197;28;19932;-58
2022/03/11 00:59:43;;;;;;;;;;;19.00;99.90;;;;;;5027628;28;19929;-61
2022/03/11 01:02:11;;;;;;;;;;;19.00;99.90;;;;;;5028448;28;19937;-58
2022/03/11 01:04:38;;;;;;;;;;;19.00;99.90;;;;;;5027559;28;19933;-59
2022/03/11 01:07:05;;;;;;;;;;;18.90;99.90;;;;;;5035105;28;20427;-61
2022/03/11 01:09:32;;;;;;;;;;;18.90;99.90;;;;;;5030728;28;19925;-61
2022/03/11 01:12:00;;;;;;;;;;;18.90;99.90;;;;;;5031320;28;19925;-60
2022/03/11 01:14:27;;;;;;;;;;;18.90;99.90;;;;;;5032490;28;19925;-58
2022/03/11 01:16:54;;;;;;;;;;;18.90;99.90;;;;;;5044303;28;19925;-60
2022/03/11 01:19:21;;;;;;;;;;;18.90;99.90;;;;;;5030372;28;20404;-58
2022/03/11 01:21:49;;;;;;;;;;;18.90;99.90;;;;;;5030510;28;20392;-58
2022/03/11 01:24:21;;;;;;;;;;;18.90;99.90;;;;;;5048897;28;19928;-58
2022/03/11 01:26:48;;;;;;;;;;;18.90;99.90;;;;;;5046674;28;19952;-59
2022/03/11 01:29:16;;;;;;;;;;;18.90;99.90;;;;;;5031119;28;19936;-61
2022/03/11 01:31:47;;;;;;;;;;;18.90;99.90;;;;;;5031608;28;19936;-61
2022/03/11 01:34:14;;;;;;;;;;;18.80;99.90;;;;;;5043727;28;19936;-61
2022/03/11 01:36:41;;;;;;;;;;;18.80;99.90;;;;;;5041090;28;19929;-61
2022/03/11 01:39:08;;;;;;;;;;;18.80;99.90;;;;;;5031567;28;19944;-59
2022/03/11 01:41:36;;;;;;;;;;;18.80;99.90;;;;;;5031054;28;19929;-59
2022/03/11 01:44:06;;;;;;;;;;;18.80;99.90;;;;;;5030538;28;20458;-60
2022/03/11 01:46:33;;;;;;;;;;;18.80;99.90;;;;;;5042434;28;19925;-60
2022/03/11 01:49:02;;;;;;;;;;;18.80;99.90;;;;;;5032570;28;19929;-62
2022/03/11 01:51:30;;;;;;;;;;;18.80;99.90;;;;;;5042168;28;19940;-61
2022/03/11 01:53:57;;;;;;;;;;;18.70;99.90;;;;;;5033656;28;19937;-59
2022/03/11 01:56:24;;;;;;;;;;;18.70;99.90;;;;;;5029427;28;19925;-59
2022/03/11 01:58:55;;;;;;;;;;;18.70;99.90;;;;;;5031768;28;21323;-60
2022/03/11 02:01:22;;;;;;;;;;;18.70;99.90;;;;;;5040449;28;19929;-59
2022/03/11 02:03:51;;;;;;;;;;;18.70;99.90;;;;;;5055137;28;20501;-61
2022/03/11 02:06:20;;;;;;;;;;;18.70;99.90;;;;;;5061256;28;19935;-59
2022/03/11 02:08:47;;;;;;;;;;;18.70;99.90;;;;;;5040252;28;19936;-58
2022/03/11 02:11:14;;;;;;;;;;;18.70;99.90;;;;;;5029074;28;19936;-57
2022/03/11 02:13:51;;;;;;;;;;;18.70;99.90;;;;;;5032082;28;19977;-57
2022/03/11 02:16:19;;;;;;;;;;;18.70;99.90;;;;;;5038062;28;20517;-58
2022/03/11 02:18:47;;;;;;;;;;;18.80;99.90;;;;;;5033189;28;19929;-60
2022/03/11 02:21:14;;;;;;;;;;;18.80;99.90;;;;;;5029229;28;19936;-60
2022/03/11 02:23:52;;;;;;;;;;;18.80;99.90;;;;;;5035885;28;20319;-61
2022/03/11 02:26:20;;;;;;;;;;;18.80;99.90;;;;;;5044571;28;19940;-61
2022/03/11 02:28:48;;;;;;;;;;;18.80;99.90;;;;;;5039694;28;19940;-60
2022/03/11 02:31:15;;;;;;;;;;;18.70;99.90;;;;;;5042415;28;19924;-61
2022/03/11 02:33:42;;;;;;;;;;;18.70;99.90;;;;;;5038694;28;20331;-60
2022/03/11 02:36:10;;;;;;;;;;;18.80;99.90;;;;;;5033887;28;19932;-59
2022/03/11 02:38:37;;;;;;;;;;;18.80;99.90;;;;;;5036683;28;20286;-59
2022/03/11 02:41:05;;;;;;;;;;;18.70;99.90;;;;;;5049730;28;19928;-59
2022/03/11 02:43:32;;;;;;;;;;;18.80;99.90;;;;;;5035789;28;19929;-59
2022/03/11 02:46:00;;;;;;;;;;;18.80;99.90;;;;;;5036922;28;19933;-60
2022/03/11 02:48:27;;;;;;;;;;;18.90;99.90;;;;;;5046540;28;20698;-60
2022/03/11 02:50:55;;;;;;;;;;;18.90;99.90;;;;;;5038415;28;19948;-59
2022/03/11 02:53:22;;;;;;;;;;;18.90;99.90;;;;;;5039606;28;19959;-62
2022/03/11 02:55:49;;;;;;;;;;;18.80;99.90;;;;;;5036292;28;19933;-60
2022/03/11 02:58:17;;;;;;;;;;;18.80;99.90;;;;;;5031289;28;19947;-61
2022/03/11 03:00:44;;;;;;;;;;;18.80;99.90;;;;;;5028608;28;20320;-62
2022/03/11 03:03:11;;;;;;;;;;;18.80;99.90;;;;;;5038447;28;20311;-59
2022/03/11 03:05:38;;;;;;;;;;;18.80;99.90;;;;;;5037800;28;19932;-60
2022/03/11 03:08:06;;;;;;;;;;;18.80;99.90;;;;;;5038420;28;19936;-60
2022/03/11 03:10:34;;;;;;;;;;;18.80;99.90;;;;;;5041583;28;19936;-59
2022/03/11 03:13:02;;;;;;;;;;;18.80;99.90;;;;;;5035751;28;19936;-59
2022/03/11 03:15:32;;;;;;;;;;;18.80;99.90;;;;;;5033434;28;20304;-59
2022/03/11 03:17:59;;;;;;;;;;;18.80;99.90;;;;;;5033230;28;19940;-62
2022/03/11 03:20:26;;;;;;;;;;;18.70;99.90;;;;;;5042299;28;20335;-61
2022/03/11 03:22:54;;;;;;;;;;;18.70;99.90;;;;;;5044121;28;20293;-61
2022/03/11 03:25:21;;;;;;;;;;;18.70;99.90;;;;;;5036209;28;19936;-61
2022/03/11 03:27:48;;;;;;;;;;;18.70;99.90;;;;;;5036751;28;20300;-61
2022/03/11 03:30:15;;;;;;;;;;;18.70;99.90;;;;;;5047379;28;19964;-60
2022/03/11 03:32:43;;;;;;;;;;;18.70;99.90;;;;;;5058972;28;20097;-61
2022/03/11 03:35:11;;;;;;;;;;;18.70;99.90;;;;;;5038468;28;19940;-60
2022/03/11 03:37:38;;;;;;;;;;;18.70;99.90;;;;;;5031085;28;19936;-60
2022/03/11 03:40:05;;;;;;;;;;;18.70;99.90;;;;;;5028507;28;19929;-60
2022/03/11 03:42:32;;;;;;;;;;;18.70;99.90;;;;;;5046608;28;19931;-58
2022/03/11 03:45:00;;;;;;;;;;;18.70;99.90;;;;;;5032486;28;19928;-59
2022/03/11 03:47:27;;;;;;;;;;;18.70;99.90;;;;;;5047154;28;19932;-57
2022/03/11 03:49:54;;;;;;;;;;;18.60;99.90;;;;;;5044256;28;19939;-61
2022/03/11 03:52:21;;;;;;;;;;;18.60;99.90;;;;;;5047000;28;19929;-60
2022/03/11 03:54:48;;;;;;;;;;;18.60;99.90;;;;;;5029446;28;19925;-61
2022/03/11 03:57:15;;;;;;;;;;;18.70;99.90;;;;;;5034205;28;20416;-60
2022/03/11 03:59:42;;;;;;;;;;;18.60;99.90;;;;;;5029441;28;20370;-59
2022/03/11 04:02:10;;;;;;;;;;;18.60;99.90;;;;;;5039110;28;19933;-61
2022/03/11 04:04:37;;;;;;;;;;;18.60;99.90;;;;;;5058115;28;19937;-61
2022/03/11 04:07:04;;;;;;;;;;;18.60;99.90;;;;;;5050779;28;19928;-61
2022/03/11 04:09:31;;;;;;;;;;;18.60;99.90;;;;;;5050366;28;19929;-62
2022/03/11 04:11:58;;;;;;;;;;;18.60;99.90;;;;;;5057148;28;19935;-59
2022/03/11 04:14:27;;;;;;;;;;;18.60;99.90;;;;;;5042588;28;20259;-58
2022/03/11 04:16:55;;;;;;;;;;;18.50;99.90;;;;;;5043014;28;19925;-61
2022/03/11 04:19:22;;;;;;;;;;;18.50;99.90;;;;;;5041928;28;20316;-58
2022/03/11 04:21:49;;;;;;;;;;;18.50;99.90;;;;;;5032796;28;19929;-57
2022/03/11 04:24:17;;;;;;;;;;;18.50;99.90;;;;;;5042199;28;19929;-59
2022/03/11 04:26:44;;;;;;;;;;;18.50;99.90;;;;;;5039075;28;19929;-60
2022/03/11 04:29:12;;;;;;;;;;;18.50;99.90;;;;;;5030410;28;19932;-61
2022/03/11 04:31:40;;;;;;;;;;;18.40;99.90;;;;;;5045677;28;19932;-58
2022/03/11 04:34:07;;;;;;;;;;;18.40;99.90;;;;;;5032908;28;20345;-59
2022/03/11 04:36:38;;;;;;;;;;;18.40;99.90;;;;;;5062881;28;19961;-60
2022/03/11 04:39:06;;;;;;;;;;;18.40;99.90;;;;;;5041877;28;19929;-58
2022/03/11 04:41:34;;;;;;;;;;;18.40;99.90;;;;;;5046810;28;19955;-58
2022/03/11 04:44:02;;;;;;;;;;;18.40;99.90;;;;;;5045649;28;20006;-59
2022/03/11 04:46:30;;;;;;;;;;;18.40;99.90;;;;;;5046279;28;19928;-59
2022/03/11 04:48:57;;;;;;;;;;;18.40;99.90;;;;;;5040176;28;19932;-60
2022/03/11 04:51:25;;;;;;;;;;;18.40;99.90;;;;;;5039745;28;19952;-58
2022/03/11 04:53:52;;;;;;;;;;;18.40;99.90;;;;;;5050754;28;19935;-60
2022/03/11 04:56:19;;;;;;;;;;;18.40;99.90;;;;;;5059108;28;19929;-57
2022/03/11 04:58:47;;;;;;;;;;;18.50;99.90;;;;;;5052597;28;19928;-59
2022/03/11 05:01:14;;;;;;;;;;;18.60;99.90;;;;;;5045281;28;20427;-61
2022/03/11 05:03:41;;;;;;;;;;;18.80;99.90;;;;;;5038079;28;19930;-61
2022/03/11 05:06:10;;;;;;;;;;;18.90;99.90;;;;;;5042418;28;19939;-60
2022/03/11 05:08:37;;;;;;;;;;;19.00;99.90;;;;;;5047081;28;20443;-59
2022/03/11 05:11:05;;;;;;;;;;;19.10;99.90;;;;;;5044429;28;19944;-58
2022/03/11 05:13:32;;;;;;;;;;;19.30;99.90;;;;;;5041028;28;20423;-59
2022/03/11 05:15:59;;;;;;;;;;;19.40;99.90;;;;;;5037326;28;19936;-58
2022/03/11 05:18:27;;;;;;;;;;;19.50;99.90;;;;;;5072094;28;20380;-61
2022/03/11 05:20:55;;;;;;;;;;;19.60;99.90;;;;;;5036352;28;19928;-60
2022/03/11 05:23:22;;;;;;;;;;;19.80;99.90;;;;;;5038505;28;19928;-58
2022/03/11 05:25:49;;;;;;;;;;;19.90;99.90;;;;;;5040331;28;20332;-61
2022/03/11 05:28:17;;;;;;;;;;;20.00;99.90;;;;;;5055111;28;19929;-60
2022/03/11 05:30:44;;;;;;;;;;;20.10;99.90;;;;;;5089393;28;19929;-60
2022/03/11 05:33:14;;;;;;;;;;;20.20;99.90;;;;;;5050189;28;19932;-63
2022/03/11 05:35:42;;;;;;;;;;;20.20;99.90;;;;;;5048774;28;19925;-59
2022/03/11 05:38:09;;;;;;;;;;;20.30;99.90;;;;;;5054996;28;19924;-60
2022/03/11 05:40:36;;;;;;;;;;;20.20;99.90;;;;;;5050743;28;19935;-60
2022/03/11 05:43:03;;;;;;;;;;;20.20;99.90;;;;;;5036837;28;19932;-62
2022/03/11 05:45:31;;;;;;;;;;;20.20;99.90;;;;;;5042097;28;19933;-63
2022/03/11 05:47:59;;;;;;;;;;;20.20;99.90;;;;;;5047477;28;19935;-60
2022/03/11 05:50:26;;;;;;;;;;;20.20;99.90;;;;;;5031272;28;20567;-60
2022/03/11 05:52:53;;;;;;;;;;;20.20;99.90;;;;;;5037956;28;20428;-63
2022/03/11 05:55:20;;;;;;;;;;;20.10;99.90;;;;;;5039676;28;19932;-60
2022/03/11 05:57:48;;;;;;;;;;;20.20;99.90;;;;;;5044565;28;20309;-63
2022/03/11 06:00:15;;;;;;;;;;;20.10;99.90;;;;;;5041650;28;20308;-63
2022/03/11 06:02:42;;;;;;;;;;;20.10;99.90;;;;;;5034992;28;19925;-61
2022/03/11 06:05:10;;;;;;;;;;;20.00;99.90;;;;;;5045243;28;20385;-61
2022/03/11 06:07:38;;;;;;;;;;;19.90;99.90;;;;;;5047256;28;19939;-61
2022/03/11 06:10:06;;;;;;;;;;;19.90;99.90;;;;;;5047449;28;19928;-60
2022/03/11 06:12:33;;;;;;;;;;;19.90;99.90;;;;;;5048183;28;19928;-58
2022/03/11 06:15:15;;;;;;;;;;;19.90;99.90;;;;;;5050327;28;19932;-58
2022/03/11 06:17:42;;;;;;;;;;;19.80;99.90;;;;;;5058272;28;19924;-62
2022/03/11 06:20:10;;;;;;;;;;;19.80;99.90;;;;;;5059687;28;19929;-62
2022/03/11 06:22:45;;;;;;;;;;;19.80;99.90;;;;;;5046190;28;19940;-60
2022/03/11 06:25:12;;;;;;;;;;;19.80;99.90;;;;;;5042819;28;19925;-61
2022/03/11 06:27:39;;;;;;;;;;;19.80;99.90;;;;;;5049833;28;20397;-63
2022/03/11 06:30:07;;;;;;;;;;;19.80;99.90;;;;;;5049063;28;19926;-61
2022/03/11 06:32:43;;;;;;;;;;;19.80;99.90;;;;;;5046608;28;19929;-61
2022/03/11 06:35:13;;;;;;;;;;;19.70;99.90;;;;;;5047196;28;19972;-64
2022/03/11 06:37:41;;;;;;;;;;;19.70;99.90;;;;;;5051218;28;20024;-62
2022/03/11 06:40:08;;;;;;;;;;;19.70;99.90;;;;;;5049644;28;19935;-61
2022/03/11 06:42:39;;;;;;;;;;;19.70;99.90;;;;;;5053875;28;19940;-59
2022/03/11 06:45:13;;;;;;;;;;;19.70;99.90;;;;;;5055888;28;19936;-58
2022/03/11 06:47:41;;;;;;;;;;;19.60;99.90;;;;;;5054032;28;19929;-59
2022/03/11 06:50:09;;;;;;;;;;;19.60;99.90;;;;;;5047735;28;19936;-59
2022/03/11 06:52:36;;;;;;;;;;;19.60;99.90;;;;;;5049069;28;19936;-59
2022/03/11 06:55:04;;;;;;;;;;;19.60;99.90;;;;;;5042456;28;19933;-58
2022/03/11 06:57:32;;;;;;;;;;;19.50;99.90;;;;;;5041242;28;20424;-60
2022/03/11 06:59:59;;;;;;;;;;;19.50;99.90;;;;;;5051618;28;19929;-62
2022/03/11 07:02:44;;;;;;;;;;;19.50;99.90;;;;;;5044918;28;20426;-60
2022/03/11 07:05:29;;;;;;;;;;;19.40;99.90;;;;;;5054290;28;20384;-62
2022/03/11 07:07:56;;;;;;;;;;;19.50;99.90;;;;;;5040586;28;19933;-61
2022/03/11 07:10:23;;;;;;;;;;;19.50;99.90;;;;;;5051826;28;19936;-60
2022/03/11 07:13:09;;;;;;;;;;;19.40;99.90;;;;;;5045230;28;20276;-61
2022/03/11 07:15:39;;;;;;;;;;;19.50;99.90;;;;;;5052026;28;19940;-61
2022/03/11 07:18:07;;;;;;;;;;;19.50;99.90;;;;;;5024032;28;19929;-62
2022/03/11 07:20:34;;;;;;;;;;;19.40;99.90;;;;;;5043401;28;19929;-61
2022/03/11 07:23:21;;;;;;;;;;;19.50;99.90;;;;;;5040046;28;19933;-61
2022/03/11 07:26:06;;;;;;;;;;;19.40;99.90;;;;;;5040770;28;20399;-65
2022/03/11 07:28:33;;;;;;;;;;;19.40;99.90;;;;;;5046758;28;19932;-61
2022/03/11 07:31:01;;;;;;;;;;;19.40;99.90;;;;;;5043261;28;20368;-59
2022/03/11 07:33:29;;;;;;;;;;;19.40;99.90;;;;;;5037736;28;19929;-61
2022/03/11 07:35:56;;;;;;;;;;;18.70;98.30;;;;;;5041305;28;19929;-61
2022/03/11 07:38:30;;;;;;;;;;;18.10;97.10;;;;;;5040811;28;19929;-61
2022/03/11 07:40:58;;;;;;;;;;;18.20;99.90;;;;;;5045254;28;20256;-62
2022/03/11 07:43:26;;;;;;;;;;;18.50;99.90;;;;;;5044784;28;20387;-60
2022/03/11 07:45:53;;;;;;;;;;;18.80;99.90;;;;;;5038657;28;20097;-62
2022/03/11 07:48:21;;;;;;;;;;;19.00;99.90;;;;;;5058138;28;19939;-63
2022/03/11 07:50:48;;;;;;;;;;;19.10;99.90;;;;;;5056938;28;19928;-59
2022/03/11 07:53:15;;;;;;;;;;;19.20;99.90;;;;;;5039330;28;20443;-62
2022/03/11 07:55:42;;;;;;;;;;;19.20;99.90;;;;;;5036041;28;19935;-57
2022/03/11 07:58:10;;;;;;;;;;;19.30;99.90;;;;;;4999599;28;20389;-58
2022/03/11 08:00:55;;;;;;;;;;;19.30;99.90;;;;;;5003488;28;19989;-59
2022/03/11 08:03:23;;;;;;;;;;;19.40;99.90;;;;;;4997279;28;20472;-60
2022/03/11 08:05:50;;;;;;;;;;;19.40;99.90;;;;;;5003698;28;19937;-57
2022/03/11 08:08:18;;;;;;;;;;;19.50;99.90;;;;;;5002048;28;19926;-60
2022/03/11 08:11:03;;;;;;;;;;;19.50;99.90;;;;;;5022194;28;19929;-60
2022/03/11 08:13:34;;;;;;;;;;;19.50;99.90;;;;;;4998593;28;19933;-64
2022/03/11 08:16:02;;;;;;;;;;;19.50;99.90;;;;;;4997268;28;20302;-60
2022/03/11 08:18:30;;;;;;;;;;;19.50;99.90;;;;;;4994058;28;20381;-58
2022/03/11 08:20:57;;;;;;;;;;;19.50;99.90;;;;;;5002395;28;20524;-62
2022/03/11 08:23:24;;;;;;;;;;;19.50;99.90;;;;;;5001062;28;19934;-59
2022/03/11 08:26:10;;;;;;;;;;;19.40;99.90;;;;;;5004213;28;19920;-57
2022/03/11 08:28:43;;;;;;;;;;;19.30;99.90;;;;;;5003128;28;19930;-63
2022/03/11 08:31:32;;;;;;;;;;;19.30;99.90;;;;;;4994008;28;20377;-61
2022/03/11 08:34:00;;;;;;;;;;;19.30;99.90;;;;;;4992535;28;19934;-63
2022/03/11 08:36:27;;;;;;;;;;;19.30;99.90;;;;;;5002102;28;19929;-59
2022/03/11 08:39:12;;;;;;;;;;;19.30;99.90;;;;;;4999032;28;19924;-58
2022/03/11 08:41:40;;;;;;;;;;;19.40;99.90;;;;;;5007176;28;19930;-59
2022/03/11 08:44:07;;;;;;;;;;;19.40;99.90;;;;;;5000468;28;19925;-58
2022/03/11 08:46:36;;;;;;;;;;;19.30;99.90;;;;;;4997723;28;19941;-58
2022/03/11 08:49:07;;;;;;;;;;;19.40;99.90;;;;;;5000239;28;19929;-62
2022/03/11 08:51:35;;;;;;;;;;;19.30;99.90;;;;;;4998061;28;19929;-62
2022/03/11 08:54:02;;;;;;;;;;;19.30;99.90;;;;;;4995347;28;19949;-58
2022/03/11 08:56:29;;;;;;;;;;;19.40;99.90;;;;;;5017495;28;19929;-56
2022/03/11 08:58:57;;;;;;;;;;;19.40;99.90;;;;;;5039149;28;20292;-59
2022/03/11 09:01:24;;;;;;;;;;;19.30;99.90;;;;;;5032169;28;19925;-61
2022/03/11 09:03:52;;;;;;;;;;;19.30;99.90;;;;;;5043852;28;19929;-59
2022/03/11 09:06:20;;;;;;;;;;;19.30;99.90;;;;;;5048598;28;19995;-58
2022/03/11 09:08:48;;;;;;;;;;;19.30;99.90;;;;;;5069890;28;19926;-61
2022/03/11 09:11:15;;;;;;;;;;;19.30;99.90;;;;;;5044461;28;19936;-58
2022/03/11 09:13:49;;;;;;;;;;;19.30;99.90;;;;;;5045846;28;19929;-58
2022/03/11 09:16:16;;;;;;;;;;;19.40;99.90;;;;;;5054346;28;19929;-61
2022/03/11 09:18:44;;;;;;;;;;;19.40;99.90;;;;;;5058060;28;20315;-61
2022/03/11 09:21:12;;;;;;;;;;;19.40;99.90;;;;;;5058692;28;19940;-63
2022/03/11 09:23:39;;;;;;;;;;;19.50;99.90;;;;;;5052422;28;20300;-60
2022/03/11 09:26:07;;;;;;;;;;;19.50;99.90;;;;;;5042162;28;19936;-63
2022/03/11 09:28:34;;;;;;;;;;;19.50;99.90;;;;;;5038742;28;20014;-59
2022/03/11 09:31:03;;;;;;;;;;;19.60;99.90;;;;;;5036207;28;19947;-61
2022/03/11 09:33:31;;;;;;;;;;;19.60;99.90;;;;;;5036920;28;20340;-62
2022/03/11 09:35:58;;;;;;;;;;;19.50;99.90;;;;;;5041319;28;20220;-60
2022/03/11 09:38:26;;;;;;;;;;;19.50;99.90;;;;;;5045706;28;19928;-61
2022/03/11 09:40:53;;;;;;;;;;;19.50;99.90;;;;;;5044018;28;19940;-61
2022/03/11 09:43:21;;;;;;;;;;;19.50;99.90;;;;;;5045567;28;20224;-61
2022/03/11 09:45:48;;;;;;;;;;;19.50;99.90;;;;;;5046729;28;19924;-60
2022/03/11 09:48:16;;;;;;;;;;;19.50;99.90;;;;;;5044565;28;19928;-60
2022/03/11 09:50:44;;;;;;;;;;;19.40;99.90;;;;;;5046258;28;19932;-59
2022/03/11 09:53:12;;;;;;;;;;;19.40;99.90;;;;;;5057204;28;19940;-64
2022/03/11 09:55:39;;;;;;;;;;;19.40;99.90;;;;;;5043773;28;19928;-62
2022/03/11 09:58:07;;;;;;;;;;;19.40;99.90;;;;;;5046398;28;19932;-60
2022/03/11 10:00:35;;;;;;;;;;;19.40;99.90;;;;;;5043858;28;19929;-61
2022/03/11 10:03:02;;;;;;;;;;;19.40;99.90;;;;;;5045878;28;19928;-59
2022/03/11 10:05:49;;;;;;;;;;;19.40;99.90;;;;;;5040314;28;19932;-61
2022/03/11 10:08:31;;;;;;;;;;;19.40;99.90;;;;;;5046369;28;20299;-59
2022/03/11 10:11:17;;;;;;;;;;;19.40;99.90;;;;;;5050452;28;19929;-60
2022/03/11 10:13:45;;;;;;;;;;;19.40;99.90;;;;;;5052976;28;19929;-62
2022/03/11 10:16:23;;;;;;;;;;;19.40;99.90;;;;;;5045021;28;19933;-65
2022/03/11 10:18:57;;;;;;;;;;;19.40;99.90;;;;;;5043359;28;19933;-64
2022/03/11 10:21:31;;;;;;;;;;;19.40;99.90;;;;;;5038688;28;19929;-65
2022/03/11 10:24:00;;;;;;;;;;;19.40;99.90;;;;;;5043932;28;19929;-62
2022/03/11 10:26:31;;;;;;;;;;;19.50;99.90;;;;;;5039535;28;19936;-60
2022/03/11 10:28:59;;;;;;;;;;;19.50;99.90;;;;;;5039097;28;19929;-58
2022/03/11 10:31:33;;;;;;;;;;;19.50;99.90;;;;;;5032171;28;20016;-59
2022/03/11 10:34:12;;;;;;;;;;;19.50;99.90;;;;;;5038977;28;19932;-59
2022/03/11 10:36:46;;;;;;;;;;;19.50;99.90;;;;;;5043024;28;19936;-60
2022/03/11 10:39:14;;;;;;;;;;;19.50;99.90;;;;;;5040404;28;19933;-61
2022/03/11 10:41:42;;;;;;;;;;;19.50;99.90;;;;;;5045094;28;19936;-60
2022/03/11 10:44:09;;;;;;;;;;;19.50;99.90;;;;;;5042264;28;19929;-58
2022/03/11 10:46:37;;;;;;;;;;;19.50;99.90;;;;;;5044578;28;19929;-57
2022/03/11 10:49:05;;;;;;;;;;;19.50;99.90;;;;;;5042783;28;19933;-59
2022/03/11 10:51:34;;;;;;;;;;;19.70;99.90;;;;;;5034311;28;19929;-58
2022/03/11 10:54:02;;;;;;;;;;;19.70;99.90;;;;;;5045820;28;20459;-59
2022/03/11 10:56:34;;;;;;;;;;;19.70;99.90;;;;;;5042659;28;20300;-60
2022/03/11 10:59:02;;;;;;;;;;;19.60;99.90;;;;;;5036651;28;19928;-60
2022/03/11 11:01:37;;;;;;;;;;;19.60;99.90;;;;;;5035191;28;19947;-59
2022/03/11 11:04:07;;;;;;;;;;;19.60;99.90;;;;;;5039760;28;19936;-60
2022/03/11 11:06:34;;;;;;;;;;;19.70;99.90;;;;;;5076701;28;19937;-55
2022/03/11 11:09:04;;;;;;;;;;;19.70;99.90;;;;;;5043047;28;20425;-58
2022/03/11 11:11:32;;;;;;;;;;;19.80;99.90;;;;;;5049178;28;20020;-59
2022/03/11 11:14:00;;;;;;;;;;;19.80;99.90;;;;;;5045455;28;20284;-58
2022/03/11 11:16:28;;;;;;;;;;;19.70;99.90;;;;;;5044162;28;19925;-62
2022/03/11 11:18:59;;;;;;;;;;;19.50;99.90;;;;;;5063316;28;20035;-57
2022/03/11 11:21:27;;;;;;;;;;;19.30;99.90;;;;;;5043910;28;19928;-58
2022/03/11 11:23:55;;;;;;;;;;;19.20;99.90;;;;;;5045890;28;19972;-61
2022/03/11 11:26:23;;;;;;;;;;;19.20;99.90;;;;;;5045488;28;19928;-60
2022/03/11 11:29:00;;;;;;;;;;;18.90;99.90;;;;;;5048379;28;19929;-62
2022/03/11 11:31:28;;;;;;;;;;;18.70;99.90;;;;;;5035152;28;20004;-58
2022/03/11 11:33:56;;;;;;;;;;;18.90;99.90;;;;;;5041098;28;19929;-61
2022/03/11 11:36:32;;;;;;;;;;;19.00;99.90;;;;;;5041775;28;19929;-61
2022/03/11 11:39:00;;;;;;;;;;;19.20;99.90;;;;;;5045959;28;20328;-61
2022/03/11 11:41:33;;;;;;;;;;;19.40;99.90;;;;;;5047975;28;19936;-62
2022/03/11 11:44:01;;;;;;;;;;;19.50;99.90;;;;;;5047593;28;19951;-60
2022/03/11 11:46:29;;;;;;;;;;;19.70;99.90;;;;;;5044994;28;20266;-59
2022/03/11 11:48:58;;;;;;;;;;;19.90;99.90;;;;;;5035010;28;19933;-61
2022/03/11 11:51:31;;;;;;;;;;;20.00;99.90;;;;;;5038621;28;19929;-63
2022/03/11 11:54:08;;;;;;;;;;;20.10;99.90;;;;;;5043422;28;19935;-62
2022/03/11 11:56:36;;;;;;;;;;;20.30;99.90;;;;;;5037705;28;19955;-61
2022/03/11 11:59:11;;;;;;;;;;;20.40;99.90;;;;;;5041291;28;20400;-61
2022/03/11 12:01:40;;;;;;;;;;;20.40;99.90;;;;;;5035760;28;19935;-61
2022/03/11 12:04:27;;;;;;;;;;;20.40;99.90;;;;;;5035592;28;19948;-61
2022/03/11 12:06:58;;;;;;;;;;;20.40;99.90;;;;;;5038879;28;19929;-58
2022/03/11 12:09:48;;;;;;;;;;;20.40;99.90;;;;;;5038220;28;20408;-62
2022/03/11 12:12:18;;;;;;;;;;;20.40;99.90;;;;;;5026744;28;19936;-63
2022/03/11 12:15:12;;;;;;;;;;;20.40;99.90;;;;;;5034708;28;20286;-61
2022/03/11 12:17:39;;;;;;;;;;;20.40;99.90;;;;;;5030493;28;19932;-59
2022/03/11 12:20:25;;;;;;;;;;;20.40;99.90;;;;;;5036122;28;19929;-61
2022/03/11 12:22:52;;;;;;;;;;;20.40;99.90;;;;;;5034006;28;19937;-58
2022/03/11 12:25:23;;;;;;;;;;;20.30;99.90;;;;;;5042247;28;19972;-59
2022/03/11 12:28:03;;;;;;;;;;;20.30;99.90;;;;;;5047451;28;19933;-58
2022/03/11 12:30:51;;;;;;;;;;;20.20;99.90;;;;;;5044218;28;20485;-60
2022/03/11 12:33:23;;;;;;;;;;;20.20;99.90;;;;;;5041553;28;19940;-58
2022/03/11 12:35:54;;;;;;;;;;;20.20;99.90;;;;;;5045001;28;19928;-60
2022/03/11 12:38:23;;;;;;;;;;;20.20;99.90;;;;;;5044852;28;19941;-60
2022/03/11 12:40:50;;;;;;;;;;;20.20;99.90;;;;;;5042821;28;20392;-58
2022/03/11 12:43:20;;;;;;;;;;;20.10;99.90;;;;;;5042693;28;20293;-59
2022/03/11 12:45:48;;;;;;;;;;;20.00;99.90;;;;;;5040807;28;19929;-60
2022/03/11 12:48:17;;;;;;;;;;;20.00;99.90;;;;;;5035771;28;20235;-58
2022/03/11 12:50:44;;;;;;;;;;;19.90;99.90;;;;;;5045412;28;19929;-61
2022/03/11 12:53:12;;;;;;;;;;;19.90;99.90;;;;;;5035402;28;19933;-61
2022/03/11 12:55:41;;;;;;;;;;;19.90;99.90;;;;;;5030817;28;19928;-59
2022/03/11 12:58:09;;;;;;;;;;;19.90;99.90;;;;;;5044518;28;19929;-59
2022/03/11 13:00:38;;;;;;;;;;;19.80;99.90;;;;;;5028143;28;19929;-61
2022/03/11 13:03:10;;;;;;;;;;;19.80;99.90;;;;;;5031871;28;20327;-60
2022/03/11 13:05:38;;;;;;;;;;;19.70;99.90;;;;;;5036895;28;19931;-58
2022/03/11 13:08:06;;;;;;;;;;;19.70;99.90;;;;;;5041296;28;19960;-61
2022/03/11 13:10:34;;;;;;;;;;;19.70;99.90;;;;;;5051266;28;19929;-61
2022/03/11 13:13:04;;;;;;;;;;;19.60;99.90;;;;;;5051941;28;20623;-60
2022/03/11 13:15:35;;;;;;;;;;;19.60;99.90;;;;;;5060739;28;19940;-61
2022/03/11 13:18:06;;;;;;;;;;;19.60;99.90;;;;;;5058975;28;19947;-60
2022/03/11 13:20:45;;;;;;;;;;;19.60;99.90;;;;;;5058080;28;19932;-58
2022/03/11 13:23:17;;;;;;;;;;;19.60;99.90;;;;;;5044676;28;20415;-59
2022/03/11 13:25:46;;;;;;;;;;;19.60;99.90;;;;;;5039691;28;19933;-60
2022/03/11 13:28:22;;;;;;;;;;;19.60;99.90;;;;;;5035614;28;19929;-59
2022/03/11 13:30:49;;;;;;;;;;;19.60;99.90;;;;;;5038955;28;20388;-60
2022/03/11 13:33:21;;;;;;;;;;;19.60;99.90;;;;;;5048208;28;19937;-58
2022/03/11 13:35:49;;;;;;;;;;;19.60;99.90;;;;;;5047104;28;20451;-60
2022/03/11 13:38:34;;;;;;;;;;;19.60;99.90;;;;;;5040708;28;19936;-62
2022/03/11 13:41:01;;;;;;;;;;;19.70;99.90;;;;;;5051131;28;19936;-57
2022/03/11 13:43:28;;;;;;;;;;;19.70;99.90;;;;;;5038767;28;19929;-60
2022/03/11 13:45:55;;;;;;;;;;;19.70;99.90;;;;;;5036420;28;19952;-59
2022/03/11 13:48:26;;;;;;;;;;;19.70;99.90;;;;;;5039206;28;19935;-62
2022/03/11 13:51:01;;;;;;;;;;;19.70;99.90;;;;;;5032520;28;19925;-59
2022/03/11 13:53:28;;;;;;;;;;;19.70;99.90;;;;;;5030676;28;19935;-58
2022/03/11 13:55:59;;;;;;;;;;;19.70;99.90;;;;;;5044953;28;19940;-59
2022/03/11 13:58:27;;;;;;;;;;;19.70;99.90;;;;;;5038063;28;19932;-60
2022/03/11 14:00:55;;;;;;;;;;;19.70;99.90;;;;;;5031399;28;19932;-60
2022/03/11 14:03:23;;;;;;;;;;;19.70;99.90;;;;;;5033764;28;19940;-59
2022/03/11 14:05:53;;;;;;;;;;;19.70;99.90;;;;;;5032547;28;19952;-60
2022/03/11 14:08:24;;;;;;;;;;;19.70;99.90;;;;;;5035904;28;19936;-59
2022/03/11 14:10:52;;;;;;;;;;;19.60;99.90;;;;;;5038071;28;19936;-60
2022/03/11 14:13:25;;;;;;;;;;;19.50;99.90;;;;;;5038338;28;19996;-59
2022/03/11 14:15:53;;;;;;;;;;;19.50;99.90;;;;;;5041198;28;19936;-59
2022/03/11 14:18:23;;;;;;;;;;;19.40;99.90;;;;;;5036898;28;19928;-60
2022/03/11 14:21:10;;;;;;;;;;;19.40;99.90;;;;;;5045426;28;19925;-61
2022/03/11 14:23:37;;;;;;;;;;;19.40;99.90;;;;;;5032387;28;19929;-64
2022/03/11 14:26:04;;;;;;;;;;;19.30;99.90;;;;;;5042855;28;19930;-59
2022/03/11 14:28:31;;;;;;;;;;;19.30;99.90;;;;;;5035270;28;19936;-57